createdAt,value
2019-05-07T00:00:53.478Z,1019.1629
2019-05-07T00:01:05.323Z,1019.1599
2019-05-07T00:02:04.553Z,1019.1478
2019-05-07T00:03:03.890Z,1019.173
2019-05-07T00:04:14.995Z,1019.1595
2019-05-07T00:05:14.319Z,1019.1585
2019-05-07T00:06:13.590Z,1019.1104
2019-05-07T00:06:25.439Z,1019.156
2019-05-07T00:07:13.829Z,1019.1312
2019-05-07T00:08:24.938Z,1019.15
2019-05-07T00:09:24.312Z,1019.19
2019-05-07T00:10:24.835Z,1019.1843
2019-05-07T00:11:23.750Z,1019.1867
2019-05-07T00:12:34.875Z,1019.1892
2019-05-07T00:13:34.098Z,1019.1774
2019-05-07T00:14:34.491Z,1019.1379
2019-05-07T00:15:33.694Z,1019.162
2019-05-07T00:16:44.817Z,1019.1795
2019-05-07T00:17:44.066Z,1019.1665
2019-05-07T00:18:43.342Z,1019.0918
2019-05-07T00:18:55.189Z,1019.1293
2019-05-07T00:19:54.514Z,1019.1148
2019-05-07T00:20:53.753Z,1019.1314
2019-05-07T00:21:54.020Z,1019.1267
2019-05-07T00:23:05.115Z,1019.0873
2019-05-07T00:24:04.375Z,1019.058
2019-05-07T00:25:03.709Z,1019.0657
2019-05-07T00:26:14.819Z,1019.0021
2019-05-07T00:27:14.135Z,1018.9726
2019-05-07T00:28:13.377Z,1019.0459
2019-05-07T00:28:25.221Z,1019.0263
2019-05-07T00:29:13.644Z,1019.0296
2019-05-07T00:30:24.814Z,1019.0153
2019-05-07T00:31:24.100Z,1019.0153
2019-05-07T00:32:35.136Z,1019.007
2019-05-07T00:33:34.375Z,1018.9857
2019-05-07T00:34:33.642Z,1018.9906
2019-05-07T00:35:44.786Z,1019.0345
2019-05-07T00:36:45.088Z,1018.9923
2019-05-07T00:37:44.411Z,1019.0247
2019-05-07T00:38:43.690Z,1019.057
2019-05-07T00:39:43.629Z,1019.0501
2019-05-07T00:40:55.142Z,1019.0271
2019-05-07T00:41:54.408Z,1019.0417
2019-05-07T00:42:53.785Z,1018.996
2019-05-07T00:43:53.310Z,1019.0184
2019-05-07T00:44:05.279Z,1019.0477
2019-05-07T00:45:16.780Z,1019.036
2019-05-07T00:46:04.979Z,1019.0374
2019-05-07T00:47:04.350Z,1019.0533
2019-05-07T00:48:03.661Z,1018.9796
2019-05-07T00:49:03.769Z,1018.9888
2019-05-07T00:50:15.013Z,1019.0084
2019-05-07T00:51:14.338Z,1019.031
2019-05-07T00:52:14.152Z,1019.0074
2019-05-07T00:53:03.498Z,1018.988
2019-05-07T00:53:15.410Z,1018.967
2019-05-07T00:54:14.713Z,1019.0048
2019-05-07T00:55:14.331Z,1018.9938
2019-05-07T00:56:14.547Z,1019.0237
2019-05-07T00:57:04.203Z,1019.0663
2019-05-07T00:58:04.458Z,1019.0318
2019-05-07T00:59:04.292Z,1019.0053
2019-05-07T01:00:54.701Z,1019.0482
2019-05-07T01:01:44.620Z,1019.0101
2019-05-07T01:02:45.195Z,1019.0321
2019-05-07T01:03:33.592Z,1018.9957
2019-05-07T01:03:45.429Z,1018.9946
2019-05-07T01:04:44.820Z,1019.0409
2019-05-07T01:05:44.153Z,1018.987
2019-05-07T01:06:43.546Z,1019.0758
2019-05-07T01:06:55.429Z,1019.0529
2019-05-07T01:07:54.749Z,1019.0834
2019-05-07T01:08:54.214Z,1019.0222
2019-05-07T01:09:53.550Z,1019.0632
2019-05-07T01:10:05.396Z,1019.0452
2019-05-07T01:11:04.811Z,1019.0165
2019-05-07T01:12:04.212Z,1019.0689
2019-05-07T01:13:03.660Z,1019.0347
2019-05-07T01:14:14.905Z,1019.0331
2019-05-07T01:15:27.839Z,1019.0657
2019-05-07T01:16:14.791Z,1019.0295
2019-05-07T01:17:14.103Z,1019.0536
2019-05-07T01:18:13.442Z,1019.0565
2019-05-07T01:18:25.325Z,1019.0516
2019-05-07T01:19:24.748Z,1019.0804
2019-05-07T01:20:25.111Z,1019.0983
2019-05-07T01:21:13.488Z,1019.0817
2019-05-07T01:21:25.370Z,1019.0817
2019-05-07T01:22:24.635Z,1019.0573
2019-05-07T01:23:23.929Z,1019.0507
2019-05-07T01:24:35.040Z,1019.0837
2019-05-07T01:25:34.659Z,1019.1182
2019-05-07T01:26:34.275Z,1019.1091
2019-05-07T01:27:33.738Z,1019.1116
2019-05-07T01:28:44.989Z,1019.1174
2019-05-07T01:29:44.546Z,1019.16
2019-05-07T01:30:43.920Z,1019.1409
2019-05-07T01:31:43.829Z,1019.1267
2019-05-07T01:32:55.118Z,1019.1121
2019-05-07T01:33:54.587Z,1019.1386
2019-05-07T01:34:53.929Z,1019.1954
2019-05-07T01:35:53.610Z,1019.1709
2019-05-07T01:37:04.942Z,1019.1791
2019-05-07T01:38:04.452Z,1019.2202
2019-05-07T01:39:03.908Z,1019.1595
2019-05-07T01:40:15.183Z,1019.1873
2019-05-07T01:41:14.676Z,1019.173
2019-05-07T01:42:14.253Z,1019.1858
2019-05-07T01:43:13.835Z,1019.1826
2019-05-07T01:44:13.350Z,1019.2189
2019-05-07T01:44:25.281Z,1019.1853
2019-05-07T01:45:25.121Z,1019.2103
2019-05-07T01:46:24.702Z,1019.222
2019-05-07T01:47:23.912Z,1019.1934
2019-05-07T01:48:24.178Z,1019.2493
2019-05-07T01:49:24.124Z,1019.2645
2019-05-07T01:50:24.202Z,1019.2357
2019-05-07T01:51:23.680Z,1019.2145
2019-05-07T01:52:23.483Z,1019.2112
2019-05-07T01:52:35.361Z,1019.226
2019-05-07T01:53:34.872Z,1019.2368
2019-05-07T01:54:34.198Z,1019.2287
2019-05-07T01:55:33.759Z,1019.2157
2019-05-07T01:56:45.150Z,1019.2354
2019-05-07T01:57:44.518Z,1019.1769
2019-05-07T01:58:44.057Z,1019.1903
2019-05-07T01:59:44.286Z,1019.1608
2019-05-07T02:00:43.934Z,1019.2143
2019-05-07T02:01:43.341Z,1019.2061
2019-05-07T02:01:55.193Z,1019.1964
2019-05-07T02:02:54.669Z,1019.1734
2019-05-07T02:03:54.142Z,1019.1992
2019-05-07T02:04:53.695Z,1019.2169
2019-05-07T02:06:05.085Z,1019.1843
2019-05-07T02:07:04.603Z,1019.1174
2019-05-07T02:08:03.941Z,1019.0816
2019-05-07T02:09:03.387Z,1019.101
2019-05-07T02:09:15.237Z,1019.1352
2019-05-07T02:10:14.497Z,1019.124
2019-05-07T02:11:13.761Z,1019.1386
2019-05-07T02:12:24.925Z,1019.1988
2019-05-07T02:13:24.205Z,1019.1859
2019-05-07T02:14:23.520Z,1019.1715
2019-05-07T02:14:35.368Z,1019.2268
2019-05-07T02:15:34.622Z,1019.1765
2019-05-07T02:16:33.887Z,1019.1944
2019-05-07T02:17:44.997Z,1019.1894
2019-05-07T02:18:44.304Z,1019.2075
2019-05-07T02:19:43.691Z,1019.2139
2019-05-07T02:20:43.939Z,1019.2218
2019-05-07T02:21:55.045Z,1019.2297
2019-05-07T02:22:54.325Z,1019.2299
2019-05-07T02:23:53.605Z,1019.168
2019-05-07T02:25:04.738Z,1019.2365
2019-05-07T02:26:04.034Z,1019.238
2019-05-07T02:27:15.147Z,1019.214
2019-05-07T02:28:14.454Z,1019.2537
2019-05-07T02:29:13.714Z,1019.2182
2019-05-07T02:30:24.833Z,1019.1992
2019-05-07T02:31:24.095Z,1019.2482
2019-05-07T02:32:24.167Z,1019.2144
2019-05-07T02:32:35.209Z,1019.2565
2019-05-07T02:33:35.178Z,1019.2373
2019-05-07T02:34:34.506Z,1019.212
2019-05-07T02:35:44.956Z,1019.2351
2019-05-07T02:36:44.195Z,1019.214
2019-05-07T02:37:50.787Z,1019.2027
2019-05-07T02:38:44.307Z,1019.2334
2019-05-07T02:39:44.552Z,1019.2366
2019-05-07T02:40:55.131Z,1019.2072
2019-05-07T02:41:54.484Z,1019.1892
2019-05-07T02:42:54.197Z,1019.2284
2019-05-07T02:44:04.850Z,1019.2249
2019-05-07T02:45:04.588Z,1019.2022
2019-05-07T02:46:20.336Z,1019.2185
2019-05-07T02:47:04.120Z,1019.2117
2019-05-07T02:47:15.428Z,1019.1518
2019-05-07T02:48:14.728Z,1019.1873
2019-05-07T02:49:14.421Z,1019.1922
2019-05-07T02:50:25.096Z,1019.189
2019-05-07T02:51:24.369Z,1019.2048
2019-05-07T02:52:23.666Z,1019.1918
2019-05-07T02:53:34.761Z,1019.1867
2019-05-07T02:54:34.015Z,1019.1525
2019-05-07T02:55:45.094Z,1019.1817
2019-05-07T02:56:44.450Z,1019.1947
2019-05-07T02:57:43.719Z,1019.1964
2019-05-07T02:58:54.815Z,1019.1817
2019-05-07T02:59:54.616Z,1019.1394
2019-05-07T03:00:53.455Z,1019.1573
2019-05-07T03:01:05.366Z,1019.1783
2019-05-07T03:02:04.592Z,1019.1199
2019-05-07T03:03:04.452Z,1019.1411
2019-05-07T03:04:14.935Z,1019.2047
2019-05-07T03:05:05.096Z,1019.2036
2019-05-07T03:06:04.590Z,1019.223
2019-05-07T03:07:04.128Z,1019.226
2019-05-07T03:08:15.067Z,1019.2634
2019-05-07T03:09:14.790Z,1019.2272
2019-05-07T03:10:13.929Z,1019.2203
2019-05-07T03:10:25.421Z,1019.1864
2019-05-07T03:11:24.704Z,1019.1777
2019-05-07T03:12:24.070Z,1019.1781
2019-05-07T03:13:35.095Z,1019.1623
2019-05-07T03:14:34.355Z,1019.1546
2019-05-07T03:15:33.732Z,1019.1755
2019-05-07T03:15:45.401Z,1019.1431
2019-05-07T03:16:49.111Z,1019.1836
2019-05-07T03:17:44.965Z,1019.1479
2019-05-07T03:18:44.257Z,1019.1425
2019-05-07T03:19:43.432Z,1019.1487
2019-05-07T03:19:55.297Z,1019.1681
2019-05-07T03:20:54.572Z,1019.1629
2019-05-07T03:21:54.615Z,1019.1721
2019-05-07T03:22:54.087Z,1019.1359
2019-05-07T03:23:53.915Z,1019.1439
2019-05-07T03:24:05.184Z,1019.113
2019-05-07T03:25:04.442Z,1019.1305
2019-05-07T03:26:04.237Z,1019.0912
2019-05-07T03:27:14.822Z,1019.1523
2019-05-07T03:28:14.112Z,1019.0887
2019-05-07T03:29:13.372Z,1019.0898
2019-05-07T03:29:25.248Z,1019.1141
2019-05-07T03:30:16.589Z,1019.1545
2019-05-07T03:31:16.541Z,1019.1022
2019-05-07T03:32:16.008Z,1019.1149
2019-05-07T03:33:16.002Z,1019.0806
2019-05-07T03:34:16.036Z,1019.1245
2019-05-07T03:35:16.111Z,1019.0906
2019-05-07T03:36:16.466Z,1019.1132
2019-05-07T03:37:15.156Z,1019.1295
2019-05-07T03:38:14.447Z,1019.1668
2019-05-07T03:39:14.608Z,1019.1213
2019-05-07T03:40:14.338Z,1019.1542
2019-05-07T03:41:25.054Z,1019.1022
2019-05-07T03:42:24.410Z,1019.1267
2019-05-07T03:43:23.633Z,1019.1105
2019-05-07T03:44:34.787Z,1019.0617
2019-05-07T03:45:34.061Z,1019.0424
2019-05-07T03:46:57.489Z,1019.0312
2019-05-07T03:47:33.510Z,1019.0231
2019-05-07T03:47:45.345Z,1019.0232
2019-05-07T03:48:44.673Z,1019.0509
2019-05-07T03:49:43.916Z,1019.0298
2019-05-07T03:50:54.998Z,1019.0122
2019-05-07T03:51:54.337Z,1018.9976
2019-05-07T03:52:54.279Z,1019.0463
2019-05-07T03:54:04.824Z,1018.9833
2019-05-07T03:55:04.117Z,1019.0289
2019-05-07T03:56:15.121Z,1019.0567
2019-05-07T03:57:15.767Z,1019.0584
2019-05-07T03:58:14.958Z,1019.047
2019-05-07T03:59:13.893Z,1019.1006
2019-05-07T04:00:25.009Z,1019.0764
2019-05-07T04:01:24.322Z,1019.0538
2019-05-07T04:02:24.141Z,1019.0343
2019-05-07T04:02:35.410Z,1019.0476
2019-05-07T04:03:34.829Z,1019.0623
2019-05-07T04:04:33.974Z,1019.0672
2019-05-07T04:05:45.103Z,1019.0527
2019-05-07T04:06:44.429Z,1019.0495
2019-05-07T04:07:44.709Z,1019.0184
2019-05-07T04:08:43.960Z,1018.999
2019-05-07T04:09:55.031Z,1018.9957
2019-05-07T04:10:54.392Z,1019.0236
2019-05-07T04:11:53.522Z,1019.0803
2019-05-07T04:12:05.369Z,1019.0903
2019-05-07T04:13:04.797Z,1019.0775
2019-05-07T04:14:03.881Z,1019.0513
2019-05-07T04:15:19.050Z,1019.0285
2019-05-07T04:16:04.175Z,1019.0465
2019-05-07T04:17:14.095Z,1019.0043
2019-05-07T04:18:03.975Z,1019.0155
2019-05-07T04:19:15.086Z,1019.0217
2019-05-07T04:20:14.271Z,1019.0147
2019-05-07T04:21:14.079Z,1018.969
2019-05-07T04:21:25.360Z,1018.9642
2019-05-07T04:22:28.721Z,1018.9313
2019-05-07T04:23:14.294Z,1018.9115
2019-05-07T04:24:14.322Z,1018.9224
2019-05-07T04:25:13.602Z,1018.8993
2019-05-07T04:25:25.429Z,1018.9282
2019-05-07T04:26:24.674Z,1018.8632
2019-05-07T04:27:24.056Z,1018.8953
2019-05-07T04:28:35.062Z,1018.89
2019-05-07T04:29:35.010Z,1018.8847
2019-05-07T04:30:33.712Z,1018.9105
2019-05-07T04:31:44.886Z,1018.8742
2019-05-07T04:32:44.139Z,1018.9324
2019-05-07T04:33:44.045Z,1018.9174
2019-05-07T04:33:55.243Z,1018.9221
2019-05-07T04:34:54.514Z,1018.9348
2019-05-07T04:35:53.950Z,1018.9312
2019-05-07T04:37:04.945Z,1018.9083
2019-05-07T04:38:06.809Z,1018.9536
2019-05-07T04:39:04.424Z,1018.9257
2019-05-07T04:40:03.759Z,1018.9095
2019-05-07T04:41:14.917Z,1018.924
2019-05-07T04:42:14.245Z,1018.9128
2019-05-07T04:43:13.901Z,1018.9439
2019-05-07T04:43:25.421Z,1018.9359
2019-05-07T04:44:24.716Z,1018.9262
2019-05-07T04:45:24.009Z,1018.9459
2019-05-07T04:46:35.137Z,1018.9297
2019-05-07T04:47:42.381Z,1018.946
2019-05-07T04:48:34.581Z,1018.9442
2019-05-07T04:49:33.840Z,1018.9277
2019-05-07T04:50:47.620Z,1018.9243
2019-05-07T04:51:33.680Z,1018.9356
2019-05-07T04:51:45.174Z,1018.9096
2019-05-07T04:52:44.442Z,1018.9158
2019-05-07T04:53:43.851Z,1018.8831
2019-05-07T04:54:54.970Z,1018.8632
2019-05-07T04:55:54.235Z,1018.9215
2019-05-07T04:56:53.509Z,1018.8953
2019-05-07T04:57:05.366Z,1018.9146
2019-05-07T04:58:08.812Z,1018.8348
2019-05-07T04:59:04.838Z,1018.867
2019-05-07T05:00:04.255Z,1018.8601
2019-05-07T05:01:03.563Z,1018.8793
2019-05-07T05:01:15.400Z,1018.9021
2019-05-07T05:02:14.669Z,1018.9066
2019-05-07T05:03:13.928Z,1018.9226
2019-05-07T05:04:30.066Z,1018.9335
2019-05-07T05:05:13.543Z,1018.8731
2019-05-07T05:05:25.387Z,1018.8993
2019-05-07T05:06:24.666Z,1018.9439
2019-05-07T05:07:23.905Z,1018.9631
2019-05-07T05:08:35.016Z,1018.9397
2019-05-07T05:09:34.405Z,1018.9117
2019-05-07T05:10:33.891Z,1018.8901
2019-05-07T05:11:44.845Z,1018.8975
2019-05-07T05:12:44.066Z,1018.923
2019-05-07T05:13:44.896Z,1018.9662
2019-05-07T05:14:44.071Z,1018.9379
2019-05-07T05:15:54.755Z,1018.9388
2019-05-07T05:16:54.018Z,1018.9948
2019-05-07T05:18:05.096Z,1019.0279
2019-05-07T05:19:04.334Z,1019.0318
2019-05-07T05:20:03.803Z,1019.031
2019-05-07T05:21:14.744Z,1019.0493
2019-05-07T05:22:13.964Z,1019.0726
2019-05-07T05:23:25.060Z,1019.1035
2019-05-07T05:24:24.337Z,1019.0549
2019-05-07T05:25:23.670Z,1019.0744
2019-05-07T05:26:34.804Z,1019.0424
2019-05-07T05:27:34.062Z,1019.1054
2019-05-07T05:28:45.124Z,1019.1243
2019-05-07T05:29:44.409Z,1019.0769
2019-05-07T05:30:43.784Z,1019.137
2019-05-07T05:31:54.910Z,1019.0812
2019-05-07T05:32:54.236Z,1019.1152
2019-05-07T05:33:53.482Z,1019.1052
2019-05-07T05:34:05.353Z,1019.1668
2019-05-07T05:35:04.663Z,1019.0879
2019-05-07T05:36:04.041Z,1019.1443
2019-05-07T05:37:03.318Z,1019.1375
2019-05-07T05:37:15.161Z,1019.1124
2019-05-07T05:38:14.425Z,1019.1428
2019-05-07T05:39:13.687Z,1019.1115
2019-05-07T05:40:24.744Z,1019.1768
2019-05-07T05:41:24.094Z,1019.167
2019-05-07T05:42:23.351Z,1019.1679
2019-05-07T05:42:35.194Z,1019.1251
2019-05-07T05:43:34.515Z,1019.1713
2019-05-07T05:44:33.759Z,1019.1375
2019-05-07T05:45:44.973Z,1019.186
2019-05-07T05:46:44.280Z,1019.1862
2019-05-07T05:47:44.950Z,1019.1657
2019-05-07T05:48:43.782Z,1019.158
2019-05-07T05:49:54.891Z,1019.1586
2019-05-07T05:50:54.293Z,1019.1759
2019-05-07T05:51:53.552Z,1019.1408
2019-05-07T05:52:05.401Z,1019.1682
2019-05-07T05:53:04.647Z,1019.1367
2019-05-07T05:54:03.926Z,1019.1671
2019-05-07T05:55:15.033Z,1019.1564
2019-05-07T05:56:14.391Z,1019.1225
2019-05-07T05:57:13.686Z,1019.1599
2019-05-07T05:58:24.781Z,1019.1875
2019-05-07T05:59:29.529Z,1019.1691
2019-05-07T06:00:13.424Z,1019.1417
2019-05-07T06:00:25.314Z,1019.1312
2019-05-07T06:01:24.655Z,1019.0925
2019-05-07T06:02:23.923Z,1019.1284
2019-05-07T06:03:24.162Z,1019.0814
2019-05-07T06:04:23.415Z,1019.1179
2019-05-07T06:04:35.281Z,1019.1387
2019-05-07T06:05:34.659Z,1019.1604
2019-05-07T06:06:33.775Z,1019.099
2019-05-07T06:07:44.887Z,1019.1336
2019-05-07T06:08:44.141Z,1019.1654
2019-05-07T06:09:43.421Z,1019.119
2019-05-07T06:09:55.282Z,1019.1353
2019-05-07T06:10:54.686Z,1019.1525
2019-05-07T06:11:53.976Z,1019.1649
2019-05-07T06:13:05.075Z,1019.142
2019-05-07T06:14:04.356Z,1019.1709
2019-05-07T06:15:03.665Z,1019.1624
2019-05-07T06:16:14.754Z,1019.2093
2019-05-07T06:17:13.999Z,1019.1223
2019-05-07T06:18:25.041Z,1019.1408
2019-05-07T06:19:24.262Z,1019.0936
2019-05-07T06:20:23.475Z,1019.1254
2019-05-07T06:20:35.326Z,1019.0943
2019-05-07T06:21:34.583Z,1019.0901
2019-05-07T06:22:33.838Z,1019.0804
2019-05-07T06:23:44.929Z,1019.0346
2019-05-07T06:24:44.159Z,1019.1301
2019-05-07T06:25:43.530Z,1019.0393
2019-05-07T06:25:55.326Z,1019.0665
2019-05-07T06:26:54.562Z,1019.0446
2019-05-07T06:27:53.831Z,1019.1149
2019-05-07T06:28:54.084Z,1019.1451
2019-05-07T06:29:53.317Z,1019.0484
2019-05-07T06:30:05.222Z,1019.0923
2019-05-07T06:31:04.376Z,1019.1293
2019-05-07T06:32:04.579Z,1019.1024
2019-05-07T06:33:04.806Z,1019.1044
2019-05-07T06:34:04.097Z,1019.0893
2019-05-07T06:35:03.315Z,1019.1215
2019-05-07T06:35:15.155Z,1019.1009
2019-05-07T06:36:14.393Z,1019.0578
2019-05-07T06:37:13.622Z,1019.0933
2019-05-07T06:38:24.696Z,1019.1176
2019-05-07T06:39:23.925Z,1019.1493
2019-05-07T06:40:34.972Z,1019.1155
2019-05-07T06:41:34.187Z,1019.1342
2019-05-07T06:42:34.410Z,1019.1174
2019-05-07T06:43:33.662Z,1019.1282
2019-05-07T06:44:44.769Z,1019.1557
2019-05-07T06:45:43.992Z,1019.1157
2019-05-07T06:46:55.139Z,1019.1307
2019-05-07T06:47:54.355Z,1019.159
2019-05-07T06:48:54.593Z,1019.1576
2019-05-07T06:49:53.794Z,1019.1228
2019-05-07T06:51:04.866Z,1019.1454
2019-05-07T06:52:04.080Z,1019.1848
2019-05-07T06:53:15.193Z,1019.1306
2019-05-07T06:54:14.428Z,1019.1759
2019-05-07T06:55:13.695Z,1019.1486
2019-05-07T06:56:24.776Z,1019.1068
2019-05-07T06:57:23.997Z,1019.1127
2019-05-07T06:58:35.047Z,1019.1087
2019-05-07T06:59:34.817Z,1019.1323
2019-05-07T07:00:33.597Z,1019.1571
2019-05-07T07:01:44.649Z,1019.1486
2019-05-07T07:02:43.861Z,1019.1498
2019-05-07T07:03:54.926Z,1019.0851
2019-05-07T07:04:54.184Z,1019.1517
2019-05-07T07:05:53.418Z,1019.1487
2019-05-07T07:06:05.267Z,1019.1549
2019-05-07T07:07:04.505Z,1019.1804
2019-05-07T07:08:03.701Z,1019.1197
2019-05-07T07:09:14.826Z,1019.1281
2019-05-07T07:10:14.133Z,1019.0995
2019-05-07T07:11:13.545Z,1019.0901
2019-05-07T07:11:25.380Z,1019.1079
2019-05-07T07:12:26.053Z,1019.1042
2019-05-07T07:13:24.833Z,1019.1215
2019-05-07T07:14:24.046Z,1019.1124
2019-05-07T07:15:35.148Z,1019.1429
2019-05-07T07:16:34.405Z,1019.1102
2019-05-07T07:17:33.629Z,1019.1557
2019-05-07T07:18:51.773Z,1019.1443
2019-05-07T07:19:44.910Z,1019.1379
2019-05-07T07:20:44.165Z,1019.1409
2019-05-07T07:21:43.453Z,1019.0619
2019-05-07T07:21:55.290Z,1019.1199
2019-05-07T07:22:54.488Z,1019.1027
2019-05-07T07:23:53.713Z,1019.0564
2019-05-07T07:25:06.638Z,1019.1224
2019-05-07T07:26:05.159Z,1019.0974
2019-05-07T07:27:04.361Z,1019.0675
2019-05-07T07:28:04.569Z,1019.1135
2019-05-07T07:29:03.782Z,1019.1071
2019-05-07T07:30:14.830Z,1019.109
2019-05-07T07:31:14.063Z,1019.1135
2019-05-07T07:32:25.134Z,1019.134
2019-05-07T07:33:24.362Z,1019.1595
2019-05-07T07:34:23.574Z,1019.147
2019-05-07T07:34:35.416Z,1019.1027
2019-05-07T07:35:34.643Z,1019.1218
2019-05-07T07:36:33.904Z,1019.1329
2019-05-07T07:37:44.934Z,1019.022
2019-05-07T07:38:44.149Z,1019.0751
2019-05-07T07:39:43.348Z,1019.0451
2019-05-07T07:39:55.186Z,1019.0271
2019-05-07T07:40:54.439Z,1019.0551
2019-05-07T07:41:53.665Z,1019.0959
2019-05-07T07:43:06.924Z,1019.0806
2019-05-07T07:44:04.954Z,1019.0584
2019-05-07T07:45:04.183Z,1019.0281
2019-05-07T07:46:03.718Z,1019.0178
2019-05-07T07:47:03.349Z,1019.0462
2019-05-07T07:48:04.826Z,1019.042
2019-05-07T07:49:10.868Z,1019.0778
2019-05-07T07:50:04.833Z,1019.0485
2019-05-07T07:51:04.028Z,1019.0197
2019-05-07T07:52:03.418Z,1018.9915
2019-05-07T07:52:15.225Z,1018.9929
2019-05-07T07:53:14.433Z,1019.0099
2019-05-07T07:54:13.642Z,1019.0032
2019-05-07T07:55:24.690Z,1019.0012
2019-05-07T07:56:14.049Z,1019.0039
2019-05-07T07:57:14.283Z,1018.9121
2019-05-07T07:58:13.640Z,1018.9603
2019-05-07T07:59:24.708Z,1018.9639
2019-05-07T08:00:23.925Z,1018.9663
2019-05-07T08:01:34.973Z,1018.945
2019-05-07T08:02:34.194Z,1018.9202
2019-05-07T08:03:33.496Z,1018.9042
2019-05-07T08:03:45.345Z,1018.9495
2019-05-07T08:04:44.558Z,1018.94
2019-05-07T08:05:43.807Z,1018.8906
2019-05-07T08:06:54.852Z,1018.8888
2019-05-07T08:07:54.062Z,1018.9255
2019-05-07T08:08:53.395Z,1018.9047
2019-05-07T08:09:05.226Z,1018.9273
2019-05-07T08:10:04.438Z,1018.9318
2019-05-07T08:11:03.664Z,1018.9123
2019-05-07T08:12:15.022Z,1018.9281
2019-05-07T08:13:14.549Z,1018.9298
2019-05-07T08:14:13.834Z,1018.8987
2019-05-07T08:15:25.039Z,1018.9514
2019-05-07T08:16:24.085Z,1018.917
2019-05-07T08:17:23.628Z,1018.9385
2019-05-07T08:18:34.722Z,1018.9034
2019-05-07T08:19:33.925Z,1018.8548
2019-05-07T08:20:45.039Z,1018.8419
2019-05-07T08:21:44.257Z,1018.8883
2019-05-07T08:22:43.474Z,1018.8677
2019-05-07T08:22:55.325Z,1018.8677
2019-05-07T08:23:54.549Z,1018.8654
2019-05-07T08:24:53.876Z,1018.8214
2019-05-07T08:26:04.993Z,1018.8301
2019-05-07T08:27:04.202Z,1018.8393
2019-05-07T08:28:03.384Z,1018.9018
2019-05-07T08:28:15.226Z,1018.9073
2019-05-07T08:29:03.569Z,1018.9629
2019-05-07T08:29:15.404Z,1018.9035
2019-05-07T08:30:14.740Z,1018.8088
2019-05-07T08:31:13.962Z,1018.8901
2019-05-07T08:32:25.019Z,1018.9288
2019-05-07T08:33:24.232Z,1018.8167
2019-05-07T08:34:23.459Z,1018.8252
2019-05-07T08:34:35.299Z,1018.8004
2019-05-07T08:35:34.571Z,1018.8412
2019-05-07T08:36:33.758Z,1018.8659
2019-05-07T08:37:44.820Z,1018.827
2019-05-07T08:38:44.013Z,1018.8365
2019-05-07T08:39:55.095Z,1018.8336
2019-05-07T08:40:54.312Z,1018.8546
2019-05-07T08:41:53.521Z,1018.8234
2019-05-07T08:42:05.370Z,1018.8332
2019-05-07T08:42:53.719Z,1018.7854
2019-05-07T08:44:11.397Z,1018.8245
2019-05-07T08:45:05.014Z,1018.8269
2019-05-07T08:46:04.187Z,1018.801
2019-05-07T08:47:03.397Z,1018.811
2019-05-07T08:47:15.242Z,1018.8126
2019-05-07T08:48:14.464Z,1018.8287
2019-05-07T08:49:13.723Z,1018.7557
2019-05-07T08:50:24.767Z,1018.8009
2019-05-07T08:51:24.984Z,1018.7494
2019-05-07T08:52:26.059Z,1018.7913
2019-05-07T08:53:24.441Z,1018.7658
2019-05-07T08:54:23.638Z,1018.7521
2019-05-07T08:55:34.682Z,1018.7783
2019-05-07T08:56:33.902Z,1018.6995
2019-05-07T08:57:34.260Z,1018.7691
2019-05-07T08:58:33.462Z,1018.7759
2019-05-07T08:58:45.300Z,1018.7653
2019-05-07T08:59:57.385Z,1018.7232
2019-05-07T09:00:33.549Z,1018.7281
2019-05-07T09:00:45.368Z,1018.7391
2019-05-07T09:01:45.156Z,1018.7546
2019-05-07T09:02:44.424Z,1018.7045
2019-05-07T09:03:43.641Z,1018.663
2019-05-07T09:04:54.668Z,1018.6679
2019-05-07T09:05:53.887Z,1018.6613
2019-05-07T09:07:04.948Z,1018.5809
2019-05-07T09:08:04.386Z,1018.5952
2019-05-07T09:09:03.596Z,1018.5683
2019-05-07T09:10:14.672Z,1018.4975
2019-05-07T09:11:13.994Z,1018.5518
2019-05-07T09:12:14.169Z,1018.6046
2019-05-07T09:13:13.503Z,1018.5751
2019-05-07T09:13:25.348Z,1018.5723
2019-05-07T09:14:26.251Z,1018.5314
2019-05-07T09:15:24.932Z,1018.5333
2019-05-07T09:16:13.367Z,1018.5476
2019-05-07T09:16:25.225Z,1018.5198
2019-05-07T09:17:24.469Z,1018.552
2019-05-07T09:18:23.819Z,1018.5549
2019-05-07T09:19:47.134Z,1018.4845
2019-05-07T09:20:35.058Z,1018.5133
2019-05-07T09:21:34.322Z,1018.4898
2019-05-07T09:22:33.493Z,1018.5176
2019-05-07T09:22:45.333Z,1018.5601
2019-05-07T09:23:44.692Z,1018.4642
2019-05-07T09:24:43.903Z,1018.4671
2019-05-07T09:25:44.092Z,1018.4371
2019-05-07T09:26:55.157Z,1018.4223
2019-05-07T09:27:54.361Z,1018.4176
2019-05-07T09:28:53.634Z,1018.4855
2019-05-07T09:30:04.679Z,1018.4411
2019-05-07T09:31:03.885Z,1018.4633
2019-05-07T09:32:14.952Z,1018.4454
2019-05-07T09:33:14.170Z,1018.4137
2019-05-07T09:34:13.405Z,1018.4318
2019-05-07T09:34:25.241Z,1018.4447
2019-05-07T09:35:24.506Z,1018.4885
2019-05-07T09:36:23.704Z,1018.4868
2019-05-07T09:37:34.754Z,1018.4636
2019-05-07T09:38:33.950Z,1018.4404
2019-05-07T09:39:45.015Z,1018.4533
2019-05-07T09:40:44.217Z,1018.3725
2019-05-07T09:41:43.416Z,1018.4495
2019-05-07T09:41:55.259Z,1018.4402
2019-05-07T09:42:54.460Z,1018.4006
2019-05-07T09:43:53.669Z,1018.4238
2019-05-07T09:45:04.759Z,1018.4536
2019-05-07T09:46:03.954Z,1018.4073
2019-05-07T09:47:14.991Z,1018.4643
2019-05-07T09:48:14.290Z,1018.4398
2019-05-07T09:49:13.497Z,1018.4327
2019-05-07T09:49:25.335Z,1018.4121
2019-05-07T09:50:24.632Z,1018.3792
2019-05-07T09:51:23.824Z,1018.4006
2019-05-07T09:52:34.855Z,1018.3881
2019-05-07T09:53:34.068Z,1018.3778
2019-05-07T09:54:33.846Z,1018.4123
2019-05-07T09:55:33.471Z,1018.369
2019-05-07T09:55:45.366Z,1018.4085
2019-05-07T09:56:44.560Z,1018.3542
2019-05-07T09:57:43.760Z,1018.2826
2019-05-07T09:58:54.786Z,1018.304
2019-05-07T09:59:53.990Z,1018.3459
2019-05-07T10:01:05.085Z,1018.3116
2019-05-07T10:02:04.286Z,1018.2697
2019-05-07T10:03:03.475Z,1018.2514
2019-05-07T10:03:15.315Z,1018.3386
2019-05-07T10:04:14.523Z,1018.2971
2019-05-07T10:05:13.765Z,1018.306
2019-05-07T10:06:24.804Z,1018.3065
2019-05-07T10:07:24.005Z,1018.3156
2019-05-07T10:08:35.065Z,1018.2798
2019-05-07T10:09:34.280Z,1018.315
2019-05-07T10:10:33.630Z,1018.3203
2019-05-07T10:11:44.635Z,1018.3105
2019-05-07T10:12:43.823Z,1018.3192
2019-05-07T10:13:54.843Z,1018.2634
2019-05-07T10:14:54.028Z,1018.2525
2019-05-07T10:16:07.631Z,1018.2633
2019-05-07T10:16:53.559Z,1018.2137
2019-05-07T10:17:05.404Z,1018.2109
2019-05-07T10:17:53.857Z,1018.1875
2019-05-07T10:18:53.561Z,1018.1862
2019-05-07T10:19:05.384Z,1018.212
2019-05-07T10:20:18.080Z,1018.2693
2019-05-07T10:21:04.945Z,1018.2262
2019-05-07T10:22:04.150Z,1018.1925
2019-05-07T10:23:03.375Z,1018.1882
2019-05-07T10:23:15.228Z,1018.1936
2019-05-07T10:24:14.433Z,1018.226
2019-05-07T10:25:13.632Z,1018.2015
2019-05-07T10:26:24.740Z,1018.1681
2019-05-07T10:27:24.330Z,1018.1674
2019-05-07T10:28:23.565Z,1018.2135
2019-05-07T10:28:35.404Z,1018.2048
2019-05-07T10:29:34.590Z,1018.2237
2019-05-07T10:30:33.791Z,1018.2011
2019-05-07T10:31:33.986Z,1018.1735
2019-05-07T10:32:33.313Z,1018.2093
2019-05-07T10:32:45.176Z,1018.1443
2019-05-07T10:33:44.363Z,1018.1923
2019-05-07T10:34:43.539Z,1018.1254
2019-05-07T10:34:55.379Z,1018.1788
2019-05-07T10:35:54.572Z,1018.1645
2019-05-07T10:36:53.775Z,1018.126
2019-05-07T10:38:04.990Z,1018.1024
2019-05-07T10:39:04.441Z,1018.0903
2019-05-07T10:40:03.723Z,1018.111
2019-05-07T10:41:14.759Z,1018.0781
2019-05-07T10:42:13.967Z,1018.1074